Historyczne dane pomiarowe

Dodano dane terminowe – wersja testowa.

Dane z okresu 1951-2019

Wersja bazy: 1.34 [2019-03-16, lista zmian], aktualizacja planowana na 2019-04-15

Dane meteo z obszaru Polski uzyskane na podstawie danych udostępnionych przez Instytut Meteorologii i Gospodarki Wodnej – Państwowy Instytut Badawczy.

 

Wybierz Datę:    

       

TemperaturaWilgotnośćWiatrCiśnienieOpadyŚniegCzas trwania zjawisk
 Stacja t tx tn tng RH VA  wxwx mslp ppp RRR   cm mm wxwxwxwxwxwxwx
2004-08-13 14.0 17.0 11.8 9.0-- 6.0----- 0.1------------
2004-08-14 11.6 13.7 10.5 7.5-- 8.0----- 10.4------------
2004-08-15 10.1 16.3 7.5 5.5-- 3.0----- 0.0------------
2004-08-16 10.6 20.4 3.1 1.1-- 1.7----- 0.0------------
2004-08-17 14.3 21.9 7.2 7.2-- 3.0----- 0.0------------
2004-08-18 16.9 23.2 13.4 9.2-- 2.7----- 0.0------------
2004-08-19 16.9 26.4 8.8 6.8-- 2.7----- 0.0------------
2004-08-20 16.4 24.1 10.7 8.6-- 5.3----- 1.1------------
2004-08-21 13.5 17.1 11.0 9.5-- 8.0----- 36.4------------
2004-08-22 10.0 14.0 7.7 7.7-- 8.0----- 15.6------------
2004-08-23 9.1 13.2 6.2 4.6-- 5.0----- 0.0------------
2004-08-24 11.2 21.1 3.8 2.4-- 4.0----- 3.1------------
2004-08-25 12.3 18.6 8.1 6.2-- 6.7----- 0.2------------
2004-08-26 10.4 16.2 6.6 6.6-- 8.0----- 48.4------------
2004-08-27 9.1 10.3 8.2 7.0-- 8.0----- 5.8------------
2004-08-28 9.5 15.8 3.6 2.2-- 5.7----- 0.0------------
2004-08-29 11.5 18.3 5.4 4.0-- 4.0----- 0.0------------
2004-08-30 11.9 18.6 6.2 4.2-- 3.3----- 11.6------------
2004-08-31 10.7 16.1 7.4 7.4-- 7.7----- 13.8------------
2004-09-01 6.2 13.0 0.9 -0.4-- 3.7----- 0.0------------
2004-09-02 7.2 15.5 1.6 0.5-- 2.7----- 0.0------------
2004-09-03 9.4 17.8 2.7 1.0-- 4.7----- 0.0------------
2004-09-04 9.4 17.2 3.5 1.6-- 3.7----- 0.0------------
2004-09-05 10.8 15.1 6.0 8.3-- 6.7----- 0.0------------
2004-09-06 8.7 18.5 2.6 0.7-- 1.0----- 0.0------------
2004-09-07 9.9 18.4 4.2 2.1-- 3.0----- 0.0------------
2004-09-08 11.4 17.5 5.8 4.2-- 7.7----- 0.0------------
2004-09-09 6.4 12.2 3.9 2.8-- 8.0----- 0.0------------
2004-09-10 3.8 11.4 -1.2 -1.2-- 1.3----- 0.0------------
2004-09-11 4.8 14.3 -2.1 -2.8-- 2.7----- 0.1------------
123.5 ms

 

Źródłem pochodzenia danych jest Instytut Meteorologii i Gospodarki Wodnej – Państwowy Instytut Badawczy. Dane Instytutu Meteorologii i Gospodarki Wodnej – Państwowego Instytutu Badawczego zostały przetworzone.

Dane źródłowe można odnaleźć na stronie https://dane.imgw.pl